Neptune Avra — 9HKH6 — position and weather

sailwx.info

Track history (hours):
 
Tides and Currents Weather Stations Pressure Air Temp Water Temp Dewpoint Dewpoint Depression Visibility Wind Speed Wind Dir Waves Ship Positions

Neptune Avra

Last reported at 2017-Jun-26 22:04 UTC. Time now 2017-Jun-27 12:01 UTC.
Position N 41°13' E 002°24'.

Length 155 m; draft 6.4 m.

Type: Cargo ship. MMSI: 248598000.

Date/timePositionNaut miles runAvg speedWind from/ knotsBaromVisibWave heightAir tempDewpointWater temp
2017-Jun-26 22:04N 41°13' E 002°24'216.9
2017-Jun-26 21:58N 41°12' E 002°22'817.3
2017-Jun-26 21:30N 41°07' E 002°14'917.3
2017-Jun-26 21:00N 41°01' E 002°06'917.2
2017-Jun-26 20:30N 40°55' E 001°57'817.2
2017-Jun-26 20:01N 40°49' E 001°49'916.9
2017-Jun-26 19:30N 40°43' E 001°41'817.0
2017-Jun-26 19:00N 40°38' E 001°33'917.1
2017-Jun-26 18:30N 40°33' E 001°24'917.3
2017-Jun-26 18:00N 40°27' E 001°14'817.2
2017-Jun-26 17:31N 40°22' E 001°06'917.0
2017-Jun-26 17:00N 40°17' E 000°57'917.0
2017-Jun-26 16:29N 40°12' E 000°48'1717.1
2017-Jun-26 15:29N 40°01' E 000°30'1217.2
2017-Jun-26 14:48N 39°54' E 000°18'517.2
2017-Jun-26 14:29N 39°51' E 000°12'15 1.1
2017-Jun-26 00:41N 40°01' E 000°27'817.5
2017-Jun-26 00:14N 40°06' E 000°35'517.5
2017-Jun-25 23:55N 40°09' E 000°41'717.5
2017-Jun-25 23:30N 40°14' E 000°48'917.5
2017-Jun-25 23:00N 40°19' E 000°57'917.4
2017-Jun-25 22:30N 40°25' E 001°06'1017.3
2017-Jun-25 21:57N 40°31' E 001°15'817.2
2017-Jun-25 21:30N 40°36' E 001°23'917.4
2017-Jun-25 21:00N 40°42' E 001°32'917.5
2017-Jun-25 20:30N 40°48' E 001°39'917.6
2017-Jun-25 20:00N 40°55' E 001°47'917.6
2017-Jun-25 19:30N 41°02' E 001°54'917.4
2017-Jun-25 19:00N 41°09' E 002°02'916.9
2017-Jun-25 18:30N 41°15' E 002°09'511.1
2017-Jun-25 18:00N 41°21' E 002°10'1 0.7
2017-Jun-25 16:30N 41°20' E 002°09'0 0.0
2017-Jun-25 09:40N 41°20' E 002°09'0 0.0
2017-Jun-25 03:59N 41°20' E 002°09'1 2.0
2017-Jun-25 03:29N 41°21' E 002°10'3 6.1
2017-Jun-25 03:00N 41°18' E 002°11'2 3.7
2017-Jun-25 02:23N 41°16' E 002°14'0 0.8
2017-Jun-25 02:00N 41°16' E 002°14'511.0
2017-Jun-25 01:30N 41°13' E 002°20'917.2
2017-Jun-25 01:00N 41°08' E 002°29'917.5
2017-Jun-25 00:30N 41°04' E 002°39'917.2
2017-Jun-25 00:00N 40°59' E 002°49'816.7
2017-Jun-24 23:30N 40°55' E 002°58'816.4
2017-Jun-24 23:00N 40°51' E 003°07'816.4
2017-Jun-24 22:30N 40°46' E 003°17'816.6
2017-Jun-24 21:59N 40°42' E 003°26'86 8.2
2017-Jun-24 11:29N 40°00' E 005°05'1217.1
2017-Jun-24 10:47N 39°55' E 005°19'517.5
2017-Jun-24 10:30N 39°53' E 005°25'917.3
2017-Jun-24 10:00N 39°50' E 005°35'917.1
2017-Jun-24 09:30N 39°46' E 005°45'14716.7
2017-Jun-24 00:43N 38°47' E 008°39'417.0
2017-Jun-24 00:29N 38°47' E 008°44'917.3
2017-Jun-23 23:59N 38°46' E 008°55'917.3
2017-Jun-23 23:30N 38°45' E 009°06'917.2
2017-Jun-23 23:00N 38°44' E 009°17'917.2
2017-Jun-23 22:30N 38°43' E 009°28'917.0
2017-Jun-23 22:00N 38°42' E 009°39'917.0
2017-Jun-23 21:29N 38°42' E 009°50'1416.6
2017-Jun-23 20:38N 38°40' E 010°08'1617.0
2017-Jun-23 19:40N 38°39' E 010°29'317.3
2017-Jun-23 19:30N 38°38' E 010°32'1517.0
2017-Jun-23 18:38N 38°37' E 010°52'216.7
2017-Jun-23 18:30N 38°37' E 010°54'7917.1
2017-Jun-23 13:53N 38°29' E 012°35'917.2
2017-Jun-23 13:23N 38°29' E 012°46'617.0
2017-Jun-23 13:00N 38°28' E 012°54'917.2
2017-Jun-23 12:30N 38°27' E 013°05'917.4
2017-Jun-23 12:00N 38°26' E 013°16'917.6
2017-Jun-23 11:30N 38°25' E 013°27'917.6
2017-Jun-23 11:00N 38°25' E 013°38'917.5
2017-Jun-23 10:30N 38°24' E 013°49'917.3
2017-Jun-23 09:59N 38°23' E 014°01'917.3
2017-Jun-23 09:29N 38°22' E 014°12'917.2
2017-Jun-23 08:56N 38°21' E 014°24'717.1
2017-Jun-23 08:30N 38°21' E 014°33'917.1
2017-Jun-23 08:00N 38°20' E 014°44'817.0
2017-Jun-23 07:31N 38°19' E 014°55'917.1
2017-Jun-23 07:01N 38°19' E 015°06'917.2
2017-Jun-23 06:30N 38°20' E 015°17'916.9
2017-Jun-23 06:00N 38°20' E 015°28'916.3
2017-Jun-23 05:25N 38°20' E 015°40'510.7
2017-Jun-23 05:00N 38°15' E 015°40'712.9
2017-Jun-23 04:29N 38°09' E 015°37'713.2
2017-Jun-23 03:58N 38°02' E 015°37'916.3
2017-Jun-23 03:25N 37°54' E 015°41'716.0
2017-Jun-23 03:00N 37°53' E 015°49'8316.1
2017-Jun-22 21:53N 38°43' E 017°13'717.0
2017-Jun-22 21:29N 38°49' E 017°18'816.8
2017-Jun-22 21:00N 38°54' E 017°25'816.8
2017-Jun-22 20:30N 39°00' E 017°33'917.0
2017-Jun-22 20:00N 39°06' E 017°40'916.8
2017-Jun-22 19:29N 39°13' E 017°48'816.8
2017-Jun-22 19:00N 39°18' E 017°55'917.0
2017-Jun-22 18:28N 39°25' E 018°04'817.0
2017-Jun-22 18:00N 39°31' E 018°11'817.2
2017-Jun-22 17:30N 39°37' E 018°18'917.4
2017-Jun-22 17:00N 39°43' E 018°26'11615.4
2017-Jun-22 09:29N 41°25' E 017°15'19617.2
2017-Jun-21 22:05N 43°52' E 014°18'217.7
2017-Jun-21 22:00N 43°53' E 014°17'917.7
2017-Jun-21 21:30N 43°60' E 014°09'917.6
2017-Jun-21 21:00N 44°07' E 014°01'917.3
2017-Jun-21 20:30N 44°14' E 013°55'917.3
2017-Jun-21 20:00N 44°21' E 013°48'917.0
2017-Jun-21 19:29N 44°29' E 013°41'817.1
2017-Jun-21 19:00N 44°35' E 013°35'816.7
2017-Jun-21 18:30N 44°43' E 013°29'917.0
2017-Jun-21 18:00N 44°50' E 013°22'816.8
2017-Jun-21 17:30N 44°57' E 013°17'917.0
2017-Jun-21 17:00N 45°04' E 013°10'816.7
2017-Jun-21 16:30N 45°11' E 013°04'917.1
2017-Jun-21 16:00N 45°20' E 013°01'816.2
2017-Jun-21 15:31N 45°26' E 013°08'612.5
2017-Jun-21 15:00N 45°31' E 013°15'4 8.2
2017-Jun-21 14:30N 45°33' E 013°19'1514.7
2017-Jun-21 13:31N 45°35' E 013°40'3 6.6
2017-Jun-21 12:59N 45°33' E 013°44'0 0.0
2017-Jun-21 12:26N 45°33' E 013°44'0 0.0
2017-Jun-21 11:59N 45°33' E 013°44'0 0.0
2017-Jun-21 11:20N 45°33' E 013°44'0 0.0
2017-Jun-21 10:59N 45°33' E 013°44'0 0.0
2017-Jun-21 10:19N 45°33' E 013°44'0 0.0
2017-Jun-21 09:58N 45°33' E 013°44'0 0.0
2017-Jun-21 09:28N 45°33' E 013°44'0 0.0
2017-Jun-21 08:55N 45°33' E 013°44'0 0.0
2017-Jun-21 08:28N 45°33' E 013°44'0 0.0
2017-Jun-21 07:58N 45°33' E 013°44'0 0.0
2017-Jun-21 07:28N 45°33' E 013°44'0 0.0
2017-Jun-21 06:58N 45°33' E 013°44'0 0.0
2017-Jun-21 06:22N 45°33' E 013°44'0 0.0
2017-Jun-21 05:58N 45°33' E 013°44'0 0.0
2017-Jun-21 05:22N 45°33' E 013°44'0 0.0
2017-Jun-21 04:55N 45°33' E 013°44'0 0.0
2017-Jun-21 04:28N 45°33' E 013°44'0 0.0
2017-Jun-21 03:58N 45°33' E 013°44'0 0.0
2017-Jun-21 03:22N 45°33' E 013°44'0 0.0
2017-Jun-21 02:55N 45°33' E 013°44'0 0.0
2017-Jun-21 02:25N 45°33' E 013°44'0 0.0
2017-Jun-21 01:52N 45°33' E 013°44'0 0.0
2017-Jun-21 01:28N 45°33' E 013°44'0 0.0
2017-Jun-21 00:58N 45°33' E 013°44'0 0.0
2017-Jun-21 00:25N 45°33' E 013°44'0 0.0
2017-Jun-20 23:55N 45°33' E 013°44'0 0.0
2017-Jun-20 23:28N 45°33' E 013°44'0 0.0
2017-Jun-20 22:58N 45°33' E 013°44'0 0.0
2017-Jun-20 22:28N 45°33' E 013°44'0 0.0
2017-Jun-20 21:58N 45°33' E 013°44'0 0.0
2017-Jun-20 21:31N 45°33' E 013°44'0 0.0
2017-Jun-20 20:57N 45°33' E 013°44'0 0.0
2017-Jun-20 20:30N 45°33' E 013°44'0 0.0
2017-Jun-20 20:00N 45°33' E 013°44'0 0.0
2017-Jun-20 19:24N 45°33' E 013°44'0 0.1
2017-Jun-20 19:00N 45°33' E 013°44'0 0.0
2017-Jun-20 18:30N 45°33' E 013°44'0 0.0
2017-Jun-20 18:00N 45°33' E 013°44'0 0.0
2017-Jun-20 17:30N 45°33' E 013°44'0 0.0
2017-Jun-20 17:00N 45°33' E 013°44'0 0.0
2017-Jun-20 16:30N 45°33' E 013°44'0 0.0
2017-Jun-20 16:00N 45°33' E 013°44'0 0.0
2017-Jun-20 15:27N 45°33' E 013°44'0 0.0
2017-Jun-20 14:57N 45°33' E 013°44'0 0.0
2017-Jun-20 14:30N 45°33' E 013°44'0 0.0
2017-Jun-20 13:27N 45°33' E 013°44'0 0.0
2017-Jun-20 13:00N 45°33' E 013°44'0 0.0
2017-Jun-20 12:30N 45°33' E 013°44'0 0.0
2017-Jun-20 12:00N 45°33' E 013°44'1 1.3
2017-Jun-20 11:30N 45°33' E 013°43'2 5.0
2017-Jun-20 11:00N 45°34' E 013°40'1 2.0
2017-Jun-20 10:30N 45°34' E 013°38'1 2.8
2017-Jun-20 10:00N 45°34' E 013°36'2 3.1
2017-Jun-20 09:30N 45°35' E 013°34'612.5
2017-Jun-20 09:00N 45°32' E 013°26'816.7
2017-Jun-20 08:30N 45°26' E 013°17'815.2
2017-Jun-20 08:00N 45°19' E 013°14'916.9
2017-Jun-20 07:30N 45°11' E 013°16'817.1
2017-Jun-20 07:00N 45°03' E 013°19'816.8
2017-Jun-20 06:30N 44°55' E 013°25'816.8
2017-Jun-20 06:00N 44°48' E 013°31'816.9
2017-Jun-20 05:30N 44°41' E 013°38'917.0
2017-Jun-20 05:00N 44°34' E 013°44'917.0
2017-Jun-20 04:30N 44°27' E 013°51'917.8
2017-Jun-20 04:00N 44°19' E 013°57'918.0
2017-Jun-20 03:30N 44°12' E 014°04'918.3
2017-Jun-20 03:00N 44°04' E 014°12'9318.0
2017-Jun-19 21:50N 42°52' E 015°32'717.6
2017-Jun-19 21:27N 42°47' E 015°38'1317.5
2017-Jun-19 20:44N 42°37' E 015°49'417.7
2017-Jun-19 20:30N 42°34' E 015°52'1017.6
2017-Jun-19 19:58N 42°27' E 015°60'917.6
2017-Jun-19 19:26N 42°20' E 016°09'4717.6
2017-Jun-19 16:45N 41°45' E 016°51'32314.2
2017-Jun-18 17:58N 36°36' E 014°51'919.0
2017-Jun-18 17:30N 36°37' E 014°40'1019.3
2017-Jun-18 17:00N 36°37' E 014°28'1019.0
2017-Jun-18 16:30N 36°38' E 014°16'918.6
2017-Jun-18 16:00N 36°40' E 014°05'918.8
2017-Jun-18 15:30N 36°43' E 013°53'918.8
2017-Jun-18 15:00N 36°45' E 013°42'2118.4
2017-Jun-18 13:52N 36°51' E 013°17'718.3
2017-Jun-18 13:30N 36°53' E 013°09'1018.3
2017-Jun-18 12:58N 36°56' E 012°57'47818.6
2017-Jun-17 11:15N 37°01' E 002°59'518.9
2017-Jun-17 11:00N 37°00' E 002°53'918.8
2017-Jun-17 10:30N 36°59' E 002°41'10418.2
2017-Jun-17 04:46N 36°42' E 000°33'518.3
2017-Jun-17 04:30N 36°42' E 000°27'918.2
2017-Jun-17 04:00N 36°41' E 000°15'2318.4
2017-Jun-17 02:45N 36°37' W 000°13'2418.2
2017-Jun-17 01:27N 36°33' W 000°42'817.8
2017-Jun-17 00:59N 36°32' W 000°52'1518.0
2017-Jun-17 00:07N 36°30' W 001°11'318.0
2017-Jun-16 23:59N 36°30' W 001°14'1018.1
2017-Jun-16 23:27N 36°28' W 001°26'918.2
2017-Jun-16 22:58N 36°27' W 001°37'818.3
2017-Jun-16 22:30N 36°25' W 001°48'  
Track history (hours):
 
Tides and Currents Weather Stations Pressure Air Temp Water Temp Dewpoint Dewpoint Depression Visibility Wind Speed Wind Dir Waves Ship Positions

Neptune Avra

Last reported at 2017-Jun-26 22:04 UTC. Time now 2017-Jun-27 12:01 UTC.
Position N 41°13' E 002°24'.

Length 155 m; draft 6.4 m.

Type: Cargo ship. MMSI: 248598000.

Date/timePositionNaut miles runAvg speedWind from/ knotsBaromVisibWave heightAir tempDewpointWater temp
2017-Jun-26 22:04N 41°13' E 002°24'216.9
2017-Jun-26 21:58N 41°12' E 002°22'817.3
2017-Jun-26 21:30N 41°07' E 002°14'917.3
2017-Jun-26 21:00N 41°01' E 002°06'917.2
2017-Jun-26 20:30N 40°55' E 001°57'817.2
2017-Jun-26 20:01N 40°49' E 001°49'916.9
2017-Jun-26 19:30N 40°43' E 001°41'817.0
2017-Jun-26 19:00N 40°38' E 001°33'917.1
2017-Jun-26 18:30N 40°33' E 001°24'917.3
2017-Jun-26 18:00N 40°27' E 001°14'817.2
2017-Jun-26 17:31N 40°22' E 001°06'917.0
2017-Jun-26 17:00N 40°17' E 000°57'917.0
2017-Jun-26 16:29N 40°12' E 000°48'1717.1
2017-Jun-26 15:29N 40°01' E 000°30'1217.2
2017-Jun-26 14:48N 39°54' E 000°18'517.2
2017-Jun-26 14:29N 39°51' E 000°12'15 1.1
2017-Jun-26 00:41N 40°01' E 000°27'817.5
2017-Jun-26 00:14N 40°06' E 000°35'517.5
2017-Jun-25 23:55N 40°09' E 000°41'717.5
2017-Jun-25 23:30N 40°14' E 000°48'917.5
2017-Jun-25 23:00N 40°19' E 000°57'917.4
2017-Jun-25 22:30N 40°25' E 001°06'1017.3
2017-Jun-25 21:57N 40°31' E 001°15'817.2
2017-Jun-25 21:30N 40°36' E 001°23'917.4
2017-Jun-25 21:00N 40°42' E 001°32'917.5
2017-Jun-25 20:30N 40°48' E 001°39'917.6
2017-Jun-25 20:00N 40°55' E 001°47'917.6
2017-Jun-25 19:30N 41°02' E 001°54'917.4
2017-Jun-25 19:00N 41°09' E 002°02'916.9
2017-Jun-25 18:30N 41°15' E 002°09'511.1
2017-Jun-25 18:00N 41°21' E 002°10'1 0.7
2017-Jun-25 16:30N 41°20' E 002°09'0 0.0
2017-Jun-25 09:40N 41°20' E 002°09'0 0.0
2017-Jun-25 03:59N 41°20' E 002°09'1 2.0
2017-Jun-25 03:29N 41°21' E 002°10'3 6.1
2017-Jun-25 03:00N 41°18' E 002°11'2 3.7
2017-Jun-25 02:23N 41°16' E 002°14'0 0.8
2017-Jun-25 02:00N 41°16' E 002°14'511.0
2017-Jun-25 01:30N 41°13' E 002°20'917.2
2017-Jun-25 01:00N 41°08' E 002°29'917.5
2017-Jun-25 00:30N 41°04' E 002°39'917.2
2017-Jun-25 00:00N 40°59' E 002°49'816.7
2017-Jun-24 23:30N 40°55' E 002°58'816.4
2017-Jun-24 23:00N 40°51' E 003°07'816.4
2017-Jun-24 22:30N 40°46' E 003°17'816.6
2017-Jun-24 21:59N 40°42' E 003°26'86 8.2
2017-Jun-24 11:29N 40°00' E 005°05'1217.1
2017-Jun-24 10:47N 39°55' E 005°19'517.5
2017-Jun-24 10:30N 39°53' E 005°25'917.3
2017-Jun-24 10:00N 39°50' E 005°35'917.1
2017-Jun-24 09:30N 39°46' E 005°45'14716.7
2017-Jun-24 00:43N 38°47' E 008°39'417.0
2017-Jun-24 00:29N 38°47' E 008°44'917.3
2017-Jun-23 23:59N 38°46' E 008°55'917.3
2017-Jun-23 23:30N 38°45' E 009°06'917.2
2017-Jun-23 23:00N 38°44' E 009°17'917.2
2017-Jun-23 22:30N 38°43' E 009°28'917.0
2017-Jun-23 22:00N 38°42' E 009°39'917.0
2017-Jun-23 21:29N 38°42' E 009°50'1416.6
2017-Jun-23 20:38N 38°40' E 010°08'1617.0
2017-Jun-23 19:40N 38°39' E 010°29'317.3
2017-Jun-23 19:30N 38°38' E 010°32'1517.0
2017-Jun-23 18:38N 38°37' E 010°52'216.7
2017-Jun-23 18:30N 38°37' E 010°54'7917.1
2017-Jun-23 13:53N 38°29' E 012°35'917.2
2017-Jun-23 13:23N 38°29' E 012°46'617.0
2017-Jun-23 13:00N 38°28' E 012°54'917.2
2017-Jun-23 12:30N 38°27' E 013°05'917.4
2017-Jun-23 12:00N 38°26' E 013°16'917.6
2017-Jun-23 11:30N 38°25' E 013°27'917.6
2017-Jun-23 11:00N 38°25' E 013°38'917.5
2017-Jun-23 10:30N 38°24' E 013°49'917.3
2017-Jun-23 09:59N 38°23' E 014°01'917.3
2017-Jun-23 09:29N 38°22' E 014°12'917.2
2017-Jun-23 08:56N 38°21' E 014°24'717.1
2017-Jun-23 08:30N 38°21' E 014°33'917.1
2017-Jun-23 08:00N 38°20' E 014°44'817.0
2017-Jun-23 07:31N 38°19' E 014°55'917.1
2017-Jun-23 07:01N 38°19' E 015°06'917.2
2017-Jun-23 06:30N 38°20' E 015°17'916.9
2017-Jun-23 06:00N 38°20' E 015°28'916.3
2017-Jun-23 05:25N 38°20' E 015°40'510.7
2017-Jun-23 05:00N 38°15' E 015°40'712.9
2017-Jun-23 04:29N 38°09' E 015°37'713.2
2017-Jun-23 03:58N 38°02' E 015°37'916.3
2017-Jun-23 03:25N 37°54' E 015°41'716.0
2017-Jun-23 03:00N 37°53' E 015°49'8316.1
2017-Jun-22 21:53N 38°43' E 017°13'717.0
2017-Jun-22 21:29N 38°49' E 017°18'816.8
2017-Jun-22 21:00N 38°54' E 017°25'816.8
2017-Jun-22 20:30N 39°00' E 017°33'917.0
2017-Jun-22 20:00N 39°06' E 017°40'916.8
2017-Jun-22 19:29N 39°13' E 017°48'816.8
2017-Jun-22 19:00N 39°18' E 017°55'917.0
2017-Jun-22 18:28N 39°25' E 018°04'817.0
2017-Jun-22 18:00N 39°31' E 018°11'817.2
2017-Jun-22 17:30N 39°37' E 018°18'917.4
2017-Jun-22 17:00N 39°43' E 018°26'11615.4
2017-Jun-22 09:29N 41°25' E 017°15'19617.2
2017-Jun-21 22:05N 43°52' E 014°18'217.7
2017-Jun-21 22:00N 43°53' E 014°17'917.7
2017-Jun-21 21:30N 43°60' E 014°09'917.6
2017-Jun-21 21:00N 44°07' E 014°01'917.3
2017-Jun-21 20:30N 44°14' E 013°55'917.3
2017-Jun-21 20:00N 44°21' E 013°48'917.0
2017-Jun-21 19:29N 44°29' E 013°41'817.1
2017-Jun-21 19:00N 44°35' E 013°35'816.7
2017-Jun-21 18:30N 44°43' E 013°29'917.0
2017-Jun-21 18:00N 44°50' E 013°22'816.8
2017-Jun-21 17:30N 44°57' E 013°17'917.0
2017-Jun-21 17:00N 45°04' E 013°10'816.7
2017-Jun-21 16:30N 45°11' E 013°04'917.1
2017-Jun-21 16:00N 45°20' E 013°01'816.2
2017-Jun-21 15:31N 45°26' E 013°08'612.5
2017-Jun-21 15:00N 45°31' E 013°15'4 8.2
2017-Jun-21 14:30N 45°33' E 013°19'1514.7
2017-Jun-21 13:31N 45°35' E 013°40'3 6.6
2017-Jun-21 12:59N 45°33' E 013°44'0 0.0
2017-Jun-21 12:26N 45°33' E 013°44'0 0.0
2017-Jun-21 11:59N 45°33' E 013°44'0 0.0
2017-Jun-21 11:20N 45°33' E 013°44'0 0.0
2017-Jun-21 10:59N 45°33' E 013°44'0 0.0
2017-Jun-21 10:19N 45°33' E 013°44'0 0.0
2017-Jun-21 09:58N 45°33' E 013°44'0 0.0
2017-Jun-21 09:28N 45°33' E 013°44'0 0.0
2017-Jun-21 08:55N 45°33' E 013°44'0 0.0
2017-Jun-21 08:28N 45°33' E 013°44'0 0.0
2017-Jun-21 07:58N 45°33' E 013°44'0 0.0
2017-Jun-21 07:28N 45°33' E 013°44'0 0.0
2017-Jun-21 06:58N 45°33' E 013°44'0 0.0
2017-Jun-21 06:22N 45°33' E 013°44'0 0.0
2017-Jun-21 05:58N 45°33' E 013°44'0 0.0
2017-Jun-21 05:22N 45°33' E 013°44'0 0.0
2017-Jun-21 04:55N 45°33' E 013°44'0 0.0
2017-Jun-21 04:28N 45°33' E 013°44'0 0.0
2017-Jun-21 03:58N 45°33' E 013°44'0 0.0
2017-Jun-21 03:22N 45°33' E 013°44'0 0.0
2017-Jun-21 02:55N 45°33' E 013°44'0 0.0
2017-Jun-21 02:25N 45°33' E 013°44'0 0.0
2017-Jun-21 01:52N 45°33' E 013°44'0 0.0
2017-Jun-21 01:28N 45°33' E 013°44'0 0.0
2017-Jun-21 00:58N 45°33' E 013°44'0 0.0
2017-Jun-21 00:25N 45°33' E 013°44'0 0.0
2017-Jun-20 23:55N 45°33' E 013°44'0 0.0
2017-Jun-20 23:28N 45°33' E 013°44'0 0.0
2017-Jun-20 22:58N 45°33' E 013°44'0 0.0
2017-Jun-20 22:28N 45°33' E 013°44'0 0.0
2017-Jun-20 21:58N 45°33' E 013°44'0 0.0
2017-Jun-20 21:31N 45°33' E 013°44'0 0.0
2017-Jun-20 20:57N 45°33' E 013°44'0 0.0
2017-Jun-20 20:30N 45°33' E 013°44'0 0.0
2017-Jun-20 20:00N 45°33' E 013°44'0 0.0
2017-Jun-20 19:24N 45°33' E 013°44'0 0.1
2017-Jun-20 19:00N 45°33' E 013°44'0 0.0
2017-Jun-20 18:30N 45°33' E 013°44'0 0.0
2017-Jun-20 18:00N 45°33' E 013°44'0 0.0
2017-Jun-20 17:30N 45°33' E 013°44'0 0.0
2017-Jun-20 17:00N 45°33' E 013°44'0 0.0
2017-Jun-20 16:30N 45°33' E 013°44'0 0.0
2017-Jun-20 16:00N 45°33' E 013°44'0 0.0
2017-Jun-20 15:27N 45°33' E 013°44'0 0.0
2017-Jun-20 14:57N 45°33' E 013°44'0 0.0
2017-Jun-20 14:30N 45°33' E 013°44'0 0.0
2017-Jun-20 13:27N 45°33' E 013°44'0 0.0
2017-Jun-20 13:00N 45°33' E 013°44'0 0.0
2017-Jun-20 12:30N 45°33' E 013°44'0 0.0
2017-Jun-20 12:00N 45°33' E 013°44'1 1.3
2017-Jun-20 11:30N 45°33' E 013°43'2 5.0
2017-Jun-20 11:00N 45°34' E 013°40'1 2.0
2017-Jun-20 10:30N 45°34' E 013°38'1 2.8
2017-Jun-20 10:00N 45°34' E 013°36'2 3.1
2017-Jun-20 09:30N 45°35' E 013°34'612.5
2017-Jun-20 09:00N 45°32' E 013°26'816.7
2017-Jun-20 08:30N 45°26' E 013°17'815.2
2017-Jun-20 08:00N 45°19' E 013°14'916.9
2017-Jun-20 07:30N 45°11' E 013°16'817.1
2017-Jun-20 07:00N 45°03' E 013°19'816.8
2017-Jun-20 06:30N 44°55' E 013°25'816.8
2017-Jun-20 06:00N 44°48' E 013°31'816.9
2017-Jun-20 05:30N 44°41' E 013°38'917.0
2017-Jun-20 05:00N 44°34' E 013°44'917.0
2017-Jun-20 04:30N 44°27' E 013°51'917.8
2017-Jun-20 04:00N 44°19' E 013°57'918.0
2017-Jun-20 03:30N 44°12' E 014°04'918.3
2017-Jun-20 03:00N 44°04' E 014°12'9318.0
2017-Jun-19 21:50N 42°52' E 015°32'717.6
2017-Jun-19 21:27N 42°47' E 015°38'1317.5
2017-Jun-19 20:44N 42°37' E 015°49'417.7
2017-Jun-19 20:30N 42°34' E 015°52'1017.6
2017-Jun-19 19:58N 42°27' E 015°60'917.6
2017-Jun-19 19:26N 42°20' E 016°09'4717.6
2017-Jun-19 16:45N 41°45' E 016°51'32314.2
2017-Jun-18 17:58N 36°36' E 014°51'919.0
2017-Jun-18 17:30N 36°37' E 014°40'1019.3
2017-Jun-18 17:00N 36°37' E 014°28'1019.0
2017-Jun-18 16:30N 36°38' E 014°16'918.6
2017-Jun-18 16:00N 36°40' E 014°05'918.8
2017-Jun-18 15:30N 36°43' E 013°53'918.8
2017-Jun-18 15:00N 36°45' E 013°42'2118.4
2017-Jun-18 13:52N 36°51' E 013°17'718.3
2017-Jun-18 13:30N 36°53' E 013°09'1018.3
2017-Jun-18 12:58N 36°56' E 012°57'47818.6
2017-Jun-17 11:15N 37°01' E 002°59'518.9
2017-Jun-17 11:00N 37°00' E 002°53'918.8
2017-Jun-17 10:30N 36°59' E 002°41'10418.2
2017-Jun-17 04:46N 36°42' E 000°33'518.3
2017-Jun-17 04:30N 36°42' E 000°27'918.2
2017-Jun-17 04:00N 36°41' E 000°15'2318.4
2017-Jun-17 02:45N 36°37' W 000°13'2418.2
2017-Jun-17 01:27N 36°33' W 000°42'817.8
2017-Jun-17 00:59N 36°32' W 000°52'1518.0
2017-Jun-17 00:07N 36°30' W 001°11'318.0
2017-Jun-16 23:59N 36°30' W 001°14'1018.1
2017-Jun-16 23:27N 36°28' W 001°26'918.2
2017-Jun-16 22:58N 36°27' W 001°37'818.3
2017-Jun-16 22:30N 36°25' W 001°48'  

Dump ship's entire track history